Portada
METAR-TAF:

METAR-TAF

Aeroports :

Marigot, Dominica

latitud: 15-32N, longitud: 061-18W, altitud: 13 m

Observació

L'informe es va fer fa 1 hora i 54 minuts, a les 13:00 UTC
Vent 6 kt del Sud-Est
Temperatura 28°C
Humitat 84%
Pressió 1014 hPa
Visibilitat 10 km o més
Núvols disperses a una alçada de 1700 ft
xàfecs de pluja

METAR: TDPD 131300Z 13006KT 9999 -SHRA SCT017 28/25 Q1014

Hora: 10:54 (14:54 UTC)

Pronòstic

L'informe es va fer fa 3 hores i 54 minuts, a les 11:00 UTC
Pronòstic vàlid del 13 a les 12 UTC al 14 a les 12 UTC
Vent 4 kt del Sud-Est
Visibilitat 10 km o més
Núvols disperses a una alçada de 1800 ft
Temporalment
l' 13 a les 12 UTC al 13 a les 24 UTC
Cel ennuvolat a una alçada de 1500 ft
xàfecs de pluja

TAF: TDPD 131100Z 1312/1412 13004KT 9999 SCT018 TEMPO 1312/1324 SHRA BKN015

Observacions i pronòstics meteorològics de més de 4000 aeroports (METAR i TAF).

Les estacions disponibles són els punts grocs i vermells al mapa.

Posi el ratolí al punt desitjat per veure el nom de l'estació.

Feu clic per veure les observacions i els pronòstics meteorològics.

Per canviar el mapa: feu clic els botons verds amb una creu de color negre per apropar; al botó verd amb un guió per allunyar la imatge; o en les fletxes verdes per a mapes adjacents.


METAR-TAF: